Time;durP1;ratioP1;P1;durP2;ratioP2;P2;SDS_P1;SDS_P2;PMS_P1;PMS_P2;Temp;Humidity;BMP_temperature;BMP_pressure;BME280_temperature;BME280_humidity;BME280_pressure;Samples;Min_cycle;Max_cycle;Signal;HPM_P1;HPM_P2
2022/04/20 00:00:16;;;;;;;7.72;3.75;;;12.10;99.90;;;;;;5033074;28;20060;-64
2022/04/20 00:03:20;;;;;;;8.23;4.50;;;12.00;99.90;;;;;;5033449;28;20338;-64
2022/04/20 00:06:25;;;;;;;6.53;3.50;;;12.10;99.90;;;;;;5032459;28;20048;-64
2022/04/20 00:09:30;;;;;;;9.93;4.13;;;12.10;99.90;;;;;;5032840;28;20499;-64
2022/04/20 00:12:35;;;;;;;7.82;3.55;;;12.00;99.90;;;;;;5033015;28;20511;-64
2022/04/20 00:15:39;;;;;;;7.82;3.65;;;12.10;99.90;;;;;;5032985;28;20044;-64
2022/04/20 00:18:43;;;;;;;8.18;3.65;;;12.00;99.90;;;;;;5032647;28;20056;-64
2022/04/20 00:21:48;;;;;;;11.23;3.85;;;12.00;99.90;;;;;;5031810;28;20511;-64
2022/04/20 00:24:52;;;;;;;9.05;4.57;;;12.00;99.90;;;;;;5032734;28;20045;-63
2022/04/20 00:27:55;;;;;;;5.28;3.40;;;12.00;99.90;;;;;;5032410;28;20044;-64
2022/04/20 00:30:59;;;;;;;11.10;3.60;;;11.90;99.90;;;;;;5032546;28;20047;-64
2022/04/20 00:34:03;;;;;;;7.93;3.20;;;12.00;99.90;;;;;;5032539;28;20044;-65
2022/04/20 00:37:07;;;;;;;9.90;2.78;;;11.90;99.90;;;;;;5032463;28;20303;-65
2022/04/20 00:40:12;;;;;;;10.35;3.70;;;12.00;99.90;;;;;;5032206;28;20048;-64
2022/04/20 00:43:16;;;;;;;7.97;3.10;;;11.90;99.90;;;;;;5031197;28;20056;-64
2022/04/20 00:46:23;;;;;;;14.52;3.28;;;12.00;99.90;;;;;;5031256;28;20045;-64
2022/04/20 00:49:29;;;;;;;5.68;3.40;;;12.00;99.90;;;;;;5031280;28;20384;-64
2022/04/20 00:52:33;;;;;;;7.63;3.45;;;12.00;99.90;;;;;;5031292;28;20413;-64
2022/04/20 00:55:38;;;;;;;8.18;3.10;;;12.00;99.90;;;;;;5031200;28;20036;-63
2022/04/20 00:58:46;;;;;;;13.70;3.45;;;12.00;99.90;;;;;;5031121;28;20044;-64
2022/04/20 01:01:51;;;;;;;7.60;3.50;;;12.00;99.90;;;;;;5031116;28;20044;-64
2022/04/20 01:04:56;;;;;;;5.43;3.22;;;12.10;99.90;;;;;;5031309;28;20044;-64
2022/04/20 01:08:25;;;;;;;4.32;2.60;;;12.10;99.90;;;;;;5030907;28;20052;-65
2022/04/20 01:11:54;;;;;;;10.13;3.47;;;12.20;99.90;;;;;;5031415;28;20427;-64
2022/04/20 01:15:34;;;;;;;9.05;3.30;;;12.20;99.90;;;;;;5031481;28;20067;-64
2022/04/20 01:18:55;;;;;;;7.63;3.13;;;11.90;99.90;;;;;;5030763;28;20052;-64
2022/04/20 01:22:14;;;;;;;11.45;3.85;;;11.90;99.90;;;;;;5029796;28;20048;-64
2022/04/20 01:25:47;;;;;;;6.88;3.10;;;11.90;99.90;;;;;;5032205;28;20049;-64
2022/04/20 01:29:19;;;;;;;12.35;4.00;;;11.80;99.90;;;;;;5031264;28;20041;-64
2022/04/20 01:32:37;;;;;;;17.55;12.52;;;11.80;99.90;;;;;;5031192;28;20056;-64
2022/04/20 01:35:47;;;;;;;12.15;7.50;;;11.70;99.90;;;;;;5030849;28;20045;-64
2022/04/20 01:38:52;;;;;;;11.73;5.97;;;11.60;99.90;;;;;;5030440;28;20045;-64
2022/04/20 01:41:56;;;;;;;7.60;4.20;;;11.60;99.90;;;;;;5030077;28;20048;-64
2022/04/20 01:45:01;;;;;;;8.38;3.72;;;11.50;99.90;;;;;;5030424;28;20049;-64
2022/04/20 01:48:38;;;;;;;7.35;3.97;;;11.50;99.90;;;;;;5030134;28;20045;-64
2022/04/20 01:52:01;;;;;;;8.05;3.55;;;11.50;99.90;;;;;;5030661;28;20052;-64
2022/04/20 01:55:16;;;;;;;8.35;4.65;;;11.50;99.90;;;;;;5030483;28;20406;-64
2022/04/20 01:58:38;;;;;;;5.60;3.75;;;11.50;99.90;;;;;;5030705;28;20048;-64
2022/04/20 02:05:25;;;;;;;6.18;3.65;;;11.50;99.90;;;;;;5029923;28;20048;-64
2022/04/20 02:08:58;;;;;;;9.82;4.60;;;11.50;99.90;;;;;;5030696;28;20503;-64
2022/04/20 02:12:37;;;;;;;13.93;4.78;;;11.50;99.90;;;;;;4998278;28;20612;-64
2022/04/20 02:15:50;;;;;;;12.60;4.32;;;11.40;99.90;;;;;;5030863;28;20060;-64
2022/04/20 02:19:20;;;;;;;11.93;4.30;;;11.40;99.90;;;;;;5025838;28;20056;-64
2022/04/20 02:22:31;;;;;;;6.47;3.45;;;11.30;99.90;;;;;;5029260;28;20060;-63
2022/04/20 02:25:35;;;;;;;8.23;3.70;;;11.30;99.90;;;;;;5030862;28;20046;-64
2022/04/20 02:28:39;;;;;;;11.82;4.47;;;11.20;99.90;;;;;;5029883;28;20487;-64
2022/04/20 02:31:43;;;;;;;9.75;4.00;;;11.10;99.90;;;;;;5030537;28;20044;-64
2022/04/20 02:34:46;;;;;;;9.35;4.20;;;11.00;99.90;;;;;;5029560;28;20044;-63
2022/04/20 02:37:50;;;;;;;12.38;4.28;;;11.00;99.90;;;;;;5029939;28;20400;-63
2022/04/20 02:40:55;;;;;;;8.52;3.97;;;10.90;99.90;;;;;;5029825;28;20044;-64
2022/04/20 02:43:59;;;;;;;8.18;4.18;;;10.80;99.90;;;;;;5030131;28;20058;-63
2022/04/20 02:47:03;;;;;;;9.30;3.65;;;10.80;99.90;;;;;;5029876;28;20037;-64
2022/04/20 02:50:07;;;;;;;8.52;3.95;;;10.80;99.90;;;;;;5029262;28;20041;-63
2022/04/20 02:53:13;;;;;;;8.90;4.22;;;10.80;99.90;;;;;;5029380;28;20068;-64
2022/04/20 02:56:17;;;;;;;6.38;3.72;;;10.80;99.90;;;;;;5028803;28;20041;-64
2022/04/20 02:59:23;;;;;;;7.45;3.40;;;10.80;99.90;;;;;;5029481;28;20507;-64
2022/04/20 03:02:28;;;;;;;7.72;3.40;;;10.70;99.90;;;;;;5029222;28;20052;-64
2022/04/20 03:05:32;;;;;;;12.25;4.07;;;10.70;99.90;;;;;;5030282;28;20044;-63
2022/04/20 03:08:35;;;;;;;10.40;4.45;;;10.70;99.90;;;;;;5033699;28;20045;-64
2022/04/20 03:11:40;;;;;;;9.95;3.90;;;10.60;99.90;;;;;;5033327;28;20040;-64
2022/04/20 03:14:44;;;;;;;6.45;4.25;;;10.50;99.90;;;;;;5032823;28;20048;-62
2022/04/20 03:17:48;;;;;;;10.13;3.80;;;10.50;99.90;;;;;;5032828;28;20045;-64
2022/04/20 03:20:52;;;;;;;13.13;4.72;;;10.50;99.90;;;;;;5032540;28;20408;-64
2022/04/20 03:23:58;;;;;;;7.03;3.75;;;10.50;99.90;;;;;;5032889;28;20048;-64
2022/04/20 03:27:22;;;;;;;10.63;3.65;;;10.50;99.90;;;;;;5033163;28;20041;-63
2022/04/20 03:30:32;;;;;;;8.88;3.63;;;10.40;99.90;;;;;;5033826;28;20053;-63
2022/04/20 03:33:37;;;;;;;9.85;3.10;;;10.40;99.90;;;;;;5033698;28;20393;-64
2022/04/20 03:36:41;;;;;;;6.78;3.60;;;10.30;99.90;;;;;;5032242;28;20052;-64
2022/04/20 03:39:45;;;;;;;5.85;3.55;;;10.20;99.90;;;;;;5033731;28;20048;-63
2022/04/20 03:42:49;;;;;;;8.88;3.60;;;10.10;99.90;;;;;;5033116;28;20117;-63
2022/04/20 03:45:53;;;;;;;8.80;4.05;;;10.20;99.90;;;;;;5033614;28;20052;-64
2022/04/20 03:48:57;;;;;;;10.68;4.13;;;10.10;99.90;;;;;;5032832;28;20048;-63
2022/04/20 03:52:02;;;;;;;6.18;3.70;;;10.10;99.90;;;;;;5032332;28;20388;-63
2022/04/20 03:55:10;;;;;;;8.70;4.80;;;10.00;99.90;;;;;;5032499;28;20048;-63
2022/04/20 03:58:14;;;;;;;11.23;4.40;;;9.90;99.90;;;;;;5031894;28;20044;-63
2022/04/20 04:01:20;;;;;;;7.10;3.50;;;9.90;99.90;;;;;;5032326;28;20045;-64
2022/04/20 04:04:24;;;;;;;9.13;3.88;;;9.80;99.90;;;;;;5032122;28;20594;-64
2022/04/20 04:07:32;;;;;;;7.45;4.05;;;9.80;99.90;;;;;;5032130;28;20056;-63
2022/04/20 04:10:39;;;;;;;9.75;4.07;;;9.80;99.90;;;;;;5031878;28;20033;-64
2022/04/20 04:13:44;;;;;;;10.43;4.00;;;9.70;99.90;;;;;;5032102;28;20045;-63
2022/04/20 04:16:48;;;;;;;11.85;4.07;;;9.70;99.90;;;;;;5031888;28;20068;-63
2022/04/20 04:19:52;;;;;;;10.20;3.78;;;9.60;99.90;;;;;;5032271;28;20392;-64
2022/04/20 04:22:57;;;;;;;7.60;4.35;;;9.60;99.90;;;;;;5031855;28;20052;-63
2022/04/20 04:26:22;;;;;;;9.35;4.95;;;9.60;99.90;;;;;;5032718;28;20042;-63
2022/04/20 04:29:28;;;;;;;8.68;3.85;;;9.60;99.90;;;;;;5031672;28;20041;-64
2022/04/20 04:32:33;;;;;;;12.38;4.75;;;9.60;99.90;;;;;;5031535;28;20038;-64
2022/04/20 04:35:37;;;;;;;11.73;4.85;;;9.60;99.90;;;;;;5031583;28;20519;-64
2022/04/20 04:38:45;;;;;;;7.78;4.28;;;9.60;99.90;;;;;;5031371;28;20048;-64
2022/04/20 04:41:51;;;;;;;13.88;4.65;;;9.50;99.90;;;;;;5031032;28;20041;-64
2022/04/20 04:48:36;;;;;;;8.27;4.25;;;9.50;99.90;;;;;;5031075;28;20052;-64
2022/04/20 04:48:39;;;;;;;6.97;4.63;;;9.60;99.90;;;;;;5031231;28;20485;-64
2022/04/20 04:51:46;;;;;;;13.63;5.22;;;9.60;99.90;;;;;;5031338;28;20033;-64
2022/04/20 04:54:53;;;;;;;8.88;4.07;;;9.60;99.90;;;;;;5031422;28;20502;-64
2022/04/20 04:57:58;;;;;;;14.38;5.38;;;9.60;99.90;;;;;;5030860;28;20030;-63
2022/04/20 05:01:02;;;;;;;10.15;4.47;;;9.80;99.90;;;;;;5030753;28;20044;-64
2022/04/20 05:04:06;;;;;;;10.05;5.88;;;9.80;99.90;;;;;;5030732;28;20388;-63
2022/04/20 05:07:12;;;;;;;19.92;7.43;;;9.90;99.90;;;;;;5031011;28;20291;-63
2022/04/20 05:10:25;;;;;;;21.20;9.60;;;10.00;99.90;;;;;;5030787;28;20388;-64
2022/04/20 05:13:30;;;;;;;17.38;8.77;;;10.10;99.90;;;;;;5030936;28;20052;-64
2022/04/20 05:16:35;;;;;;;15.00;7.97;;;10.30;99.90;;;;;;5030321;28;20056;-63
2022/04/20 05:19:41;;;;;;;9.88;5.53;;;10.60;99.90;;;;;;5030523;28;20064;-63
2022/04/20 05:22:54;;;;;;;9.35;4.38;;;12.00;99.90;;;;;;5030725;28;20048;-64
2022/04/20 05:26:00;;;;;;;9.77;3.75;;;13.70;99.90;;;;;;5030920;28;20048;-63
2022/04/20 05:29:04;;;;;;;7.38;3.67;;;15.20;99.90;;;;;;5030268;28;20032;-64
2022/04/20 05:32:18;;;;;;;11.10;4.50;;;15.90;99.90;;;;;;5030523;28;20211;-64
2022/04/20 05:35:22;;;;;;;7.88;3.45;;;16.50;99.90;;;;;;5030479;28;20048;-64
2022/04/20 05:41:51;;;;;;;9.15;3.70;;;17.90;99.90;;;;;;5030348;28;20056;-63
2022/04/20 05:45:02;;;;;;;7.82;3.35;;;17.90;99.90;;;;;;5030545;28;20405;-64
2022/04/20 05:48:08;;;;;;;8.80;3.75;;;18.30;99.90;;;;;;5029941;28;20040;-63
2022/04/20 05:51:13;;;;;;;11.05;4.03;;;18.50;99.90;;;;;;5030350;28;20044;-64
2022/04/20 05:54:18;;;;;;;7.75;3.70;;;19.10;99.90;;;;;;5030168;28;20518;-64
2022/04/20 05:57:21;;;;;;;12.88;6.15;;;19.10;99.90;;;;;;5029952;28;20052;-63
2022/04/20 06:00:28;;;;;;;14.82;6.78;;;19.50;99.90;;;;;;5030030;28;20044;-64
2022/04/20 06:03:51;;;;;;;14.70;6.35;;;20.40;99.90;;;;;;5034342;28;20403;-64
2022/04/20 06:07:08;;;;;;;12.18;6.22;;;21.00;98.70;;;;;;5035190;28;20369;-63
2022/04/20 06:10:20;;;;;;;17.08;6.80;;;21.20;98.50;;;;;;5022069;28;20036;-64
2022/04/20 06:13:35;;;;;;;9.85;5.55;;;21.60;97.00;;;;;;5027620;28;20056;-64
2022/04/20 06:16:46;;;;;;;9.43;4.90;;;21.50;95.90;;;;;;5034928;28;20048;-64
2022/04/20 06:19:55;;;;;;;14.80;4.53;;;21.80;96.20;;;;;;5021125;28;20290;-64
2022/04/20 06:23:08;;;;;;;7.53;3.53;;;20.50;95.80;;;;;;5032474;28;20053;-64
2022/04/20 06:26:35;;;;;;;9.15;3.65;;;19.10;97.20;;;;;;5030584;28;20040;-62
2022/04/20 06:29:58;;;;;;;11.60;3.40;;;18.50;98.20;;;;;;5025866;28;20064;-64
2022/04/20 06:33:12;;;;;;;11.75;3.25;;;18.30;98.90;;;;;;5019131;28;20048;-63
2022/04/20 06:36:34;;;;;;;12.27;3.60;;;19.60;98.60;;;;;;5027350;28;20048;-65
2022/04/20 06:39:59;;;;;;;9.75;3.00;;;20.70;96.80;;;;;;5018409;28;20064;-64
2022/04/20 06:43:38;;;;;;;9.38;3.00;;;20.40;96.20;;;;;;4970590;28;20058;-64
2022/04/20 06:47:03;;;;;;;6.97;2.85;;;20.10;96.60;;;;;;5037381;28;20399;-65
2022/04/20 06:50:30;;;;;;;5.05;2.53;;;21.20;95.40;;;;;;5023353;28;20041;-64
2022/04/20 07:00:51;;;;;;;8.27;3.30;;;21.20;95.00;;;;;;5033121;28;20053;-65
2022/04/20 07:04:17;;;;;;;7.88;3.50;;;20.90;95.40;;;;;;5036214;28;20052;-64
2022/04/20 07:07:40;;;;;;;10.77;3.00;;;21.50;94.70;;;;;;5030717;28;20049;-64
2022/04/20 07:10:53;;;;;;;9.15;3.97;;;21.50;94.30;;;;;;5035345;28;20064;-64
2022/04/20 07:13:57;;;;;;;9.48;3.08;;;21.30;94.60;;;;;;5039546;28;20060;-65
2022/04/20 07:17:02;;;;;;;10.77;3.67;;;20.40;95.50;;;;;;5036354;28;20056;-64
2022/04/20 07:20:17;;;;;;;6.07;3.20;;;19.80;96.00;;;;;;5026690;28;20056;-63
2022/04/20 07:23:37;;;;;;;9.55;3.10;;;19.60;97.40;;;;;;5055743;28;20060;-64
2022/04/20 07:26:59;;;;;;;8.85;3.38;;;18.40;97.50;;;;;;5036580;28;20032;-64
2022/04/20 07:30:26;;;;;;;7.75;2.88;;;17.50;98.50;;;;;;5034140;28;20392;-63
2022/04/20 07:33:52;;;;;;;11.60;3.05;;;18.80;98.40;;;;;;5023513;28;20044;-64
2022/04/20 07:37:14;;;;;;;7.85;3.35;;;17.90;99.50;;;;;;5037172;28;20412;-63
2022/04/20 07:40:18;;;;;;;12.95;3.20;;;17.70;99.50;;;;;;5036117;28;20056;-63
2022/04/20 07:43:34;;;;;;;8.13;2.90;;;16.50;99.90;;;;;;5032302;28;20487;-64
2022/04/20 07:46:58;;;;;;;12.73;3.80;;;16.20;99.90;;;;;;5028352;28;20052;-73
2022/04/20 07:50:25;;;;;;;9.93;2.50;;;16.30;99.90;;;;;;5043414;28;20045;-73
2022/04/20 07:54:05;;;;;;;5.07;2.72;;;16.30;99.90;;;;;;4950884;28;20159;-73
2022/04/20 07:57:35;;;;;;;6.45;2.78;;;18.90;99.90;;;;;;5030641;28;20041;-64
2022/04/20 08:00:51;;;;;;;9.93;3.22;;;17.10;99.90;;;;;;5031611;28;20404;-73
2022/04/20 08:04:16;;;;;;;10.45;2.95;;;17.40;99.90;;;;;;5031018;28;20416;-73
2022/04/20 08:07:30;;;;;;;7.05;2.85;;;18.00;99.90;;;;;;5027820;28;20037;-73
2022/04/20 08:10:35;;;;;;;9.63;3.50;;;18.40;99.50;;;;;;5038382;28;20040;-63
2022/04/20 08:17:20;;;;;;;9.95;4.28;;;17.50;99.90;;;;;;5028202;28;20044;-73
2022/04/20 08:20:24;;;;;;;6.50;3.33;;;19.00;98.10;;;;;;5022904;28;20052;-73
2022/04/20 08:23:36;;;;;;;6.30;2.87;;;18.80;97.70;;;;;;5024700;28;20054;-73
2022/04/20 08:26:40;;;;;;;7.88;2.90;;;19.20;97.60;;;;;;5022274;28;21130;-73
2022/04/20 08:29:47;;;;;;;7.28;2.70;;;19.30;97.20;;;;;;5028695;28;20160;-63
2022/04/20 08:32:51;;;;;;;11.40;2.83;;;19.00;97.50;;;;;;5032025;28;20048;-64
2022/04/20 08:35:55;;;;;;;5.85;3.13;;;19.80;96.60;;;;;;5027599;28;20048;-64
2022/04/20 08:38:59;;;;;;;7.95;3.03;;;17.90;98.40;;;;;;5031726;28;20056;-64
2022/04/20 08:42:04;;;;;;;6.35;3.15;;;17.10;99.50;;;;;;5025550;28;20400;-64
2022/04/20 08:45:09;;;;;;;5.35;3.28;;;17.80;99.80;;;;;;5030420;28;20036;-73
2022/04/20 08:48:14;;;;;;;9.32;2.95;;;18.30;99.20;;;;;;5025460;28;20036;-73
2022/04/20 08:51:19;;;;;;;9.52;2.90;;;19.00;98.20;;;;;;5035930;28;20052;-73
2022/04/20 08:54:23;;;;;;;4.30;2.42;;;19.90;96.80;;;;;;5027317;28;20048;-73
2022/04/20 08:57:29;;;;;;;11.43;3.03;;;20.20;97.10;;;;;;5024825;28;20706;-73
2022/04/20 09:00:33;;;;;;;7.43;2.85;;;18.20;97.80;;;;;;5027804;28;20115;-73
2022/04/20 09:03:39;;;;;;;6.05;2.45;;;19.90;96.90;;;;;;5022972;28;20040;-73
2022/04/20 09:06:46;;;;;;;8.40;2.70;;;22.90;94.50;;;;;;5030043;28;20040;-73
2022/04/20 09:09:51;;;;;;;6.93;2.08;;;26.30;90.40;;;;;;5029299;28;20053;-74
2022/04/20 09:13:10;;;;;;;11.75;2.28;;;23.80;90.10;;;;;;5027918;28;20132;-74
2022/04/20 09:16:14;;;;;;;5.63;2.03;;;26.90;85.00;;;;;;5030006;28;20515;-74
2022/04/20 09:19:24;;;;;;;4.75;2.30;;;28.20;80.60;;;;;;5026162;28;20049;-73
2022/04/20 09:22:32;;;;;;;6.68;2.35;;;27.70;80.00;;;;;;5024067;28;20091;-64
2022/04/20 09:25:47;;;;;;;6.13;2.22;;;25.10;82.30;;;;;;5026952;28;20044;-64
2022/04/20 09:29:08;;;;;;;9.13;1.95;;;26.10;80.90;;;;;;5028427;28;20048;-73
2022/04/20 09:32:15;;;;;;;6.90;2.80;;;26.90;80.30;;;;;;5034631;28;20045;-64
2022/04/20 09:35:20;;;;;;;8.07;2.30;;;24.70;81.90;;;;;;5031965;28;20052;-65
2022/04/20 09:38:26;;;;;;;5.95;2.10;;;27.80;78.70;;;;;;5021689;28;20052;-73
2022/04/20 09:41:58;;;;;;;4.30;1.88;;;28.20;76.80;;;;;;5007269;28;20037;-64
2022/04/20 09:45:08;;;;;;;8.30;2.05;;;26.80;76.00;;;;;;5032291;28;20048;-74
2022/04/20 09:51:43;;;;;;;8.93;2.45;;;22.20;83.30;;;;;;5030530;28;20044;-64
2022/04/20 09:54:56;;;;;;;5.57;1.90;;;23.70;80.30;;;;;;5027995;28;20053;-64
2022/04/20 09:58:19;;;;;;;6.88;2.53;;;24.10;84.30;;;;;;5022809;28;20643;-74
2022/04/20 10:01:25;;;;;;;9.02;2.50;;;23.00;81.50;;;;;;5038174;28;20064;-64
2022/04/20 10:04:30;;;;;;;6.97;2.33;;;23.70;80.80;;;;;;5034877;28;20040;-64
2022/04/20 10:07:34;;;;;;;4.97;2.28;;;24.90;78.90;;;;;;5028340;28;20036;-64
2022/04/20 10:10:39;;;;;;;7.50;3.00;;;24.70;81.50;;;;;;5036917;28;20720;-74
2022/04/20 10:13:43;;;;;;;7.70;2.42;;;24.30;80.80;;;;;;5034191;28;20065;-64
2022/04/20 10:16:50;;;;;;;7.40;3.17;;;24.80;80.40;;;;;;5037029;28;20491;-65
2022/04/20 10:19:57;;;;;;;5.30;2.20;;;25.50;78.20;;;;;;5025912;28;20036;-64
2022/04/20 10:23:05;;;;;;;12.63;3.13;;;25.10;79.60;;;;;;5035060;28;20404;-64
2022/04/20 10:26:10;;;;;;;8.68;3.05;;;20.30;86.50;;;;;;5040189;28;20048;-73
2022/04/20 10:29:31;;;;;;;5.85;2.38;;;20.00;88.10;;;;;;5040282;28;20056;-73
2022/04/20 10:32:52;;;;;;;9.25;2.53;;;22.00;87.80;;;;;;5034799;28;20045;-64
2022/04/20 10:36:04;;;;;;;8.20;3.10;;;25.30;81.40;;;;;;5037914;28;20041;-71
2022/04/20 10:39:22;;;;;;;7.47;2.80;;;26.90;77.40;;;;;;5026386;28;20033;-73
2022/04/20 10:43:21;;;;;;;8.95;2.55;;;25.30;79.10;;;;;;5033143;28;20052;-64
2022/04/20 10:46:25;;;;;;;15.90;3.60;;;23.90;80.90;;;;;;5034932;28;20044;-63
2022/04/20 10:49:34;;;;;;;6.63;2.85;;;22.90;82.40;;;;;;5037406;28;20040;-64
2022/04/20 10:52:41;;;;;;;10.73;3.22;;;22.90;82.80;;;;;;5036753;28;20044;-74
2022/04/20 10:55:45;;;;;;;8.40;2.72;;;21.30;86.80;;;;;;5028494;28;20534;-74
2022/04/20 10:58:52;;;;;;;5.45;2.53;;;21.90;87.10;;;;;;5028769;28;20044;-74
2022/04/20 11:02:01;;;;;;;11.23;2.88;;;21.80;85.70;;;;;;5031126;28;20048;-74
2022/04/20 11:05:15;;;;;;;6.50;2.92;;;20.80;87.80;;;;;;5038990;28;20051;-64
2022/04/20 11:08:22;;;;;;;6.70;2.85;;;19.30;90.20;;;;;;5030405;28;20053;-74
2022/04/20 11:19:09;;;;;;;6.32;2.88;;;21.20;88.30;;;;;;5031837;28;20048;-64
2022/04/20 11:22:19;;;;;;;6.00;2.58;;;22.40;85.90;;;;;;5031601;28;20043;-64
2022/04/20 11:25:25;;;;;;;7.82;2.90;;;22.80;84.50;;;;;;5031495;28;20044;-63
2022/04/20 11:28:39;;;;;;;8.00;2.63;;;22.30;85.00;;;;;;5031094;28;20036;-64
2022/04/20 11:31:51;;;;;;;6.53;2.80;;;22.10;85.70;;;;;;5039348;28;20036;-64
2022/04/20 11:35:15;;;;;;;6.28;3.00;;;22.20;84.10;;;;;;5028247;28;20044;-64
2022/04/20 11:38:44;;;;;;;9.35;2.55;;;21.60;84.40;;;;;;5029360;28;20042;-64
2022/04/20 11:41:55;;;;;;;7.03;2.60;;;20.00;87.90;;;;;;5049753;28;20048;-64
2022/04/20 11:45:02;;;;;;;9.18;3.40;;;21.80;85.90;;;;;;5023778;28;20048;-64
2022/04/20 11:48:15;;;;;;;5.57;2.72;;;22.90;83.80;;;;;;5030317;28;20044;-64
2022/04/20 11:51:28;;;;;;;9.07;3.30;;;23.20;82.90;;;;;;5045334;28;20044;-64
2022/04/20 11:54:34;;;;;;;7.63;2.50;;;21.80;85.80;;;;;;5032721;28;20515;-64
2022/04/20 11:57:49;;;;;;;10.10;2.95;;;21.60;85.80;;;;;;5029420;28;20045;-64
2022/04/20 12:01:00;;;;;;;12.73;3.92;;;20.30;87.20;;;;;;5042446;28;20048;-74
2022/04/20 12:04:13;;;;;;;13.07;3.58;;;19.40;88.70;;;;;;5029824;28;20049;-74
2022/04/20 12:07:17;;;;;;;;;;;19.50;90.20;;;;;;5030970;28;20056;-63
2022/04/20 12:10:23;;;;;;;5.65;2.95;;;19.10;90.20;;;;;;5025950;28;19916;-64
2022/04/20 12:13:31;;;;;;;6.90;2.65;;;20.50;88.40;;;;;;5030495;28;20045;-64
2022/04/20 12:16:35;;;;;;;7.60;3.13;;;23.00;85.50;;;;;;5013911;28;20480;-64
2022/04/20 12:19:41;;;;;;;6.22;3.10;;;22.00;83.80;;;;;;5023569;28;20048;-64
2022/04/20 12:22:45;;;;;;;6.63;2.83;;;20.90;86.20;;;;;;5032334;28;20527;-64
2022/04/20 12:25:53;;;;;;;6.28;2.95;;;22.40;86.30;;;;;;5024969;28;20396;-74
2022/04/20 12:28:58;;;;;;;8.20;2.50;;;21.90;85.30;;;;;;5023810;28;20049;-74
2022/04/20 12:32:03;;;;;;;6.75;2.65;;;23.00;84.80;;;;;;5030349;28;20373;-64
2022/04/20 12:35:07;;;;;;;6.13;2.75;;;22.40;84.40;;;;;;5022338;28;20400;-74
2022/04/20 12:38:19;;;;;;;10.97;2.70;;;20.70;87.00;;;;;;5024517;28;20279;-74
2022/04/20 12:41:41;;;;;;;5.43;2.67;;;20.90;87.20;;;;;;5024028;28;20056;-64
2022/04/20 12:44:53;;;;;;;5.82;2.45;;;21.90;85.30;;;;;;5024624;28;20511;-74
2022/04/20 12:48:04;;;;;;;5.55;2.40;;;20.70;85.90;;;;;;5028800;28;20049;-74
2022/04/20 12:51:21;;;;;;;8.88;2.85;;;20.40;86.40;;;;;;5028034;28;20052;-74
2022/04/20 12:54:25;;;;;;;4.82;2.47;;;21.90;85.90;;;;;;5030284;28;20113;-74
2022/04/20 13:04:16;;;;;;;8.20;2.90;;;22.80;83.50;;;;;;5021105;28;20499;-74
2022/04/20 13:07:21;;;;;;;9.23;3.00;;;21.50;85.80;;;;;;5023849;28;20037;-74
2022/04/20 13:10:26;;;;;;;5.60;2.63;;;21.20;88.40;;;;;;5027781;28;20044;-74
2022/04/20 13:13:31;;;;;;;7.68;2.90;;;21.60;86.10;;;;;;5028840;28;20042;-64
2022/04/20 13:16:38;;;;;;;7.43;2.63;;;20.50;89.80;;;;;;5028377;28;20491;-64
2022/04/20 13:19:43;;;;;;;6.70;2.40;;;21.10;86.30;;;;;;5028068;28;20056;-65
2022/04/20 13:22:49;;;;;;;5.00;2.50;;;20.90;87.90;;;;;;5029883;28;20041;-64
2022/04/20 13:29:16;;;;;;;6.95;2.60;;;20.30;87.90;;;;;;5024065;28;20392;-64
2022/04/20 13:32:21;;;;;;;5.10;2.85;;;20.50;89.40;;;;;;5025408;28;20048;-63
2022/04/20 13:35:25;;;;;;;11.60;3.05;;;20.00;88.50;;;;;;5030872;28;20045;-64
2022/04/20 13:38:29;;;;;;;5.43;2.83;;;20.20;89.50;;;;;;5018602;28;20377;-64
2022/04/20 13:41:33;;;;;;;6.20;2.78;;;20.60;89.10;;;;;;5023733;28;20044;-64
2022/04/20 13:44:38;;;;;;;10.60;3.25;;;21.50;86.70;;;;;;5027658;28;20503;-63
2022/04/20 13:47:42;;;;;;;7.15;3.80;;;21.60;87.70;;;;;;5027822;28;20064;-74
2022/04/20 13:50:47;;;;;;;7.35;2.67;;;21.30;88.00;;;;;;5030385;28;20109;-73
2022/04/20 13:53:51;;;;;;;11.75;2.80;;;20.90;87.60;;;;;;5032731;28;20051;-63
2022/04/20 13:56:55;;;;;;;7.97;3.25;;;21.10;88.70;;;;;;5017708;28;20381;-74
2022/04/20 14:00:00;;;;;;;6.45;2.78;;;20.90;87.00;;;;;;5025088;28;20765;-74
2022/04/20 14:03:04;;;;;;;6.28;2.72;;;21.30;86.60;;;;;;5027494;28;20040;-74
2022/04/20 14:06:11;;;;;;;4.85;2.88;;;21.70;86.20;;;;;;5026696;28;20061;-64
2022/04/20 14:09:15;;;;;;;9.10;2.88;;;21.00;88.40;;;;;;5020660;28;20032;-64
2022/04/20 14:12:24;;;;;;;7.25;2.65;;;21.40;86.80;;;;;;5028695;28;20040;-64
2022/04/20 14:15:28;;;;;;;5.57;3.03;;;21.40;85.90;;;;;;5024972;28;20499;-64
2022/04/20 14:18:33;;;;;;;5.40;2.83;;;20.30;88.60;;;;;;5026503;28;20049;-74
2022/04/20 14:21:37;;;;;;;8.30;3.22;;;20.60;88.30;;;;;;5020332;28;20056;-73
2022/04/20 14:24:46;;;;;;;6.35;2.95;;;20.90;87.10;;;;;;5025184;28;20070;-74
2022/04/20 14:34:36;;;;;;;5.85;3.08;;;19.40;90.00;;;;;;5024376;28;20045;-74
2022/04/20 14:37:41;;;;;;;8.10;2.78;;;19.60;90.50;;;;;;5026304;28;20040;-64
2022/04/20 14:40:45;;;;;;;7.45;2.70;;;20.00;89.90;;;;;;5026978;28;20052;-64
2022/04/20 14:43:49;;;;;;;8.85;3.17;;;19.70;90.30;;;;;;5022170;28;20052;-64
2022/04/20 14:46:54;;;;;;;4.18;2.80;;;19.10;90.80;;;;;;5020758;28;20048;-74
2022/04/20 14:49:58;;;;;;;5.35;3.30;;;18.80;90.40;;;;;;5023618;28;20044;-73
2022/04/20 14:53:02;;;;;;;9.02;3.13;;;18.90;90.50;;;;;;5025458;28;20065;-73
2022/04/20 14:56:06;;;;;;;6.30;3.40;;;18.80;91.30;;;;;;5024928;28;20535;-74
2022/04/20 14:59:11;;;;;;;4.63;2.75;;;18.90;90.90;;;;;;5026965;28;20787;-65
2022/04/20 15:02:17;;;;;;;6.03;3.13;;;18.50;91.20;;;;;;5018661;28;20052;-74
2022/04/20 15:05:22;;;;;;;7.70;2.60;;;18.50;90.50;;;;;;5024888;28;20048;-74
2022/04/20 15:08:26;;;;;;;9.18;3.42;;;18.70;91.40;;;;;;5030173;28;20044;-74
2022/04/20 15:11:37;;;;;;;6.72;2.80;;;19.10;90.90;;;;;;5013256;28;20037;-74
2022/04/20 15:14:41;;;;;;;13.02;2.42;;;19.00;90.70;;;;;;5031221;28;20056;-74
2022/04/20 15:17:46;;;;;;;11.27;2.60;;;18.80;90.70;;;;;;5030852;28;20527;-74
2022/04/20 15:20:50;;;;;;;11.75;3.25;;;18.60;90.50;;;;;;5029227;28;20045;-74
2022/04/20 15:23:54;;;;;;;6.10;3.08;;;18.70;91.30;;;;;;5031390;28;20037;-74
2022/04/20 15:26:58;;;;;;;9.00;3.33;;;19.00;91.20;;;;;;5032094;28;20056;-74
2022/04/20 15:30:05;;;;;;;6.20;2.90;;;19.10;91.20;;;;;;5020962;28;20028;-74
2022/04/20 15:33:10;;;;;;;6.55;3.00;;;19.00;90.30;;;;;;5026480;28;20046;-74
2022/04/20 15:36:15;;;;;;;9.23;3.25;;;19.30;90.40;;;;;;5025390;28;20041;-73
2022/04/20 15:39:20;;;;;;;8.48;2.97;;;19.50;90.30;;;;;;5028369;28;20060;-74
2022/04/20 15:42:24;;;;;;;7.18;2.80;;;19.50;90.30;;;;;;5033215;28;20044;-74
2022/04/20 15:45:35;;;;;;;9.13;2.70;;;19.90;90.30;;;;;;5032399;28;20037;-74
2022/04/20 15:48:39;;;;;;;6.80;3.20;;;20.00;90.10;;;;;;5021344;28;20036;-64
2022/04/20 15:51:43;;;;;;;8.35;2.95;;;19.50;90.30;;;;;;5033586;28;20125;-64
2022/04/20 16:00:13;;;;;;;8.55;3.00;;;19.50;90.80;;;;;;5032273;28;20448;-64
2022/04/20 16:01:34;;;;;;;6.03;2.83;;;19.00;91.70;;;;;;5032344;28;20048;-63
2022/04/20 16:04:38;;;;;;;7.28;2.60;;;18.70;91.20;;;;;;5031097;28;20040;-64
2022/04/20 16:07:42;;;;;;;7.45;3.10;;;18.60;90.80;;;;;;5032777;28;20060;-64
2022/04/20 16:10:49;;;;;;;6.57;2.72;;;18.70;90.90;;;;;;5031001;28;20032;-64
2022/04/20 16:13:54;;;;;;;5.30;2.47;;;19.10;91.10;;;;;;5031813;28;20056;-64
2022/04/20 16:16:58;;;;;;;4.97;2.75;;;19.20;90.60;;;;;;5030587;28;20052;-64
2022/04/20 16:20:02;;;;;;;7.72;2.70;;;19.30;91.30;;;;;;5032316;28;20125;-64
2022/04/20 16:23:07;;;;;;;6.15;3.33;;;19.30;91.00;;;;;;5029191;28;20052;-63
2022/04/20 16:26:10;;;;;;;5.22;3.10;;;19.20;91.30;;;;;;5031205;28;20057;-63
2022/04/20 16:29:15;;;;;;;7.32;2.60;;;19.10;91.40;;;;;;5032718;28;20044;-65
2022/04/20 16:32:22;;;;;;;7.05;3.10;;;18.80;92.00;;;;;;5032426;28;20048;-64
2022/04/20 16:35:26;;;;;;;3.55;2.58;;;18.40;92.00;;;;;;5032516;28;20044;-64
2022/04/20 16:38:30;;;;;;;6.47;3.42;;;18.30;92.30;;;;;;5030452;28;20048;-64
2022/04/20 16:41:37;;;;;;;10.82;2.65;;;18.30;92.50;;;;;;5027495;28;20040;-64
2022/04/20 16:44:41;;;;;;;10.52;2.70;;;18.40;92.20;;;;;;5032533;28;20057;-64
2022/04/20 16:47:45;;;;;;;6.90;2.67;;;18.50;92.20;;;;;;5032237;28;20052;-63
2022/04/20 16:50:49;;;;;;;7.70;2.80;;;18.50;92.40;;;;;;5031885;28;20036;-63
2022/04/20 16:53:53;;;;;;;11.45;3.67;;;18.50;93.60;;;;;;5024150;28;20036;-63
2022/04/20 16:56:57;;;;;;;14.50;4.20;;;18.50;94.20;;;;;;5019394;28;20032;-64
2022/04/20 17:00:05;;;;;;;7.40;3.88;;;18.50;95.10;;;;;;5027473;28;20045;-63
2022/04/20 17:03:09;;;;;;;7.88;4.10;;;18.40;95.20;;;;;;5012189;28;20053;-64
2022/04/20 17:06:13;;;;;;;9.73;4.45;;;18.30;96.10;;;;;;5011573;28;20053;-63
2022/04/20 17:09:18;;;;;;;10.13;4.65;;;18.20;96.50;;;;;;5011791;28;20110;-63
2022/04/20 17:12:23;;;;;;;13.43;4.78;;;18.10;96.90;;;;;;5011628;28;20045;-63